Time;durP1;ratioP1;P1;durP2;ratioP2;P2;SDS_P1;SDS_P2;PMS_P1;PMS_P2;Temp;Humidity;BMP_temperature;BMP_pressure;BME280_temperature;BME280_humidity;BME280_pressure;Samples;Min_cycle;Max_cycle;Signal;HPM_P1;HPM_P2
2023/08/19 00:00:13;;;;;;;8.07;4.60;;;;;;;24.73;56.29;95305.63;5034922;28;20233;-75
2023/08/19 00:02:39;;;;;;;7.75;4.57;;;;;;;24.71;56.49;95307.78;5035295;28;20307;-75
2023/08/19 00:05:04;;;;;;;13.10;4.90;;;;;;;24.61;57.03;95305.16;5021974;28;21122;-75
2023/08/19 00:07:30;;;;;;;10.13;5.03;;;;;;;24.55;57.19;95299.03;5010518;28;20255;-75
2023/08/19 00:09:55;;;;;;;10.88;4.60;;;;;;;24.55;57.24;95301.69;5035390;28;20217;-75
2023/08/19 00:12:22;;;;;;;9.98;4.80;;;;;;;24.58;57.23;95301.16;5026350;28;20251;-75
2023/08/19 00:14:49;;;;;;;10.43;4.80;;;;;;;24.46;57.55;95308.72;5017305;28;20906;-75
2023/08/19 00:17:16;;;;;;;10.63;4.45;;;;;;;24.36;58.01;95300.75;5014091;28;20235;-74
2023/08/19 00:19:41;;;;;;;8.68;4.53;;;;;;;24.40;57.78;95309.03;5009052;28;20225;-74
2023/08/19 00:22:07;;;;;;;6.55;4.60;;;;;;;24.37;58.01;95302.34;5015814;28;20726;-75
2023/08/19 00:24:32;;;;;;;9.32;4.32;;;;;;;24.38;58.12;95303.16;5035154;28;20754;-75
2023/08/19 00:26:59;;;;;;;7.63;4.55;;;;;;;24.32;58.45;95298.91;5040866;28;20229;-75
2023/08/19 00:29:25;;;;;;;9.48;4.57;;;;;;;24.37;58.44;95299.69;5015456;28;20224;-77
2023/08/19 00:31:51;;;;;;;7.32;4.82;;;;;;;24.37;58.07;95297.00;5015048;28;20241;-74
2023/08/19 00:34:16;;;;;;;9.90;4.63;;;;;;;24.40;58.31;95288.44;5033110;28;20308;-74
2023/08/19 00:36:41;;;;;;;9.45;4.43;;;;;;;24.38;58.10;95284.44;5050836;28;20224;-74
2023/08/19 00:39:08;;;;;;;7.85;4.47;;;;;;;24.39;58.13;95283.34;5048926;28;20217;-75
2023/08/19 00:41:34;;;;;;;8.07;4.53;;;;;;;24.31;58.53;95286.63;5015481;28;20288;-76
2023/08/19 00:44:00;;;;;;;7.45;4.47;;;;;;;24.37;58.24;95280.94;5038740;28;20238;-74
2023/08/19 00:46:25;;;;;;;8.75;4.63;;;;;;;24.35;57.91;95280.44;5007240;28;20234;-75
2023/08/19 00:48:51;;;;;;;7.97;4.32;;;;;;;24.32;58.17;95282.84;5033026;28;20297;-75
2023/08/19 00:51:17;;;;;;;10.07;4.57;;;;;;;24.24;58.33;95286.91;5027807;28;20216;-74
2023/08/19 00:53:43;;;;;;;9.10;4.68;;;;;;;24.16;58.76;95278.66;5030142;28;20295;-75
2023/08/19 00:56:08;;;;;;;8.60;4.15;;;;;;;24.05;58.67;95286.69;5019618;28;20352;-71
2023/08/19 00:58:34;;;;;;;9.45;4.40;;;;;;;24.05;58.83;95285.88;5016091;28;20335;-71
2023/08/19 01:00:59;;;;;;;7.63;4.40;;;;;;;23.97;58.73;95281.13;5029502;28;20232;-71
2023/08/19 01:03:25;;;;;;;12.40;4.32;;;;;;;23.89;59.47;95279.00;5015059;28;20283;-70
2023/08/19 01:06:15;;;;;;;8.25;4.45;;;;;;;23.90;59.41;95286.78;5030837;28;20241;-71
2023/08/19 01:09:13;;;;;;;8.65;4.20;;;;;;;23.87;59.06;95276.63;5059205;28;20243;-70
2023/08/19 01:12:02;;;;;;;9.45;4.72;;;;;;;23.73;59.41;95282.81;5046890;28;20240;-71
2023/08/19 01:15:08;;;;;;;7.63;4.60;;;;;;;23.77;59.26;95275.84;5055484;28;20717;-75
2023/08/19 01:17:34;;;;;;;9.52;4.57;;;;;;;23.81;59.43;95276.91;5055717;28;20235;-75
2023/08/19 01:19:59;;;;;;;8.55;4.63;;;;;;;23.82;59.42;95281.97;5069270;28;20595;-75
2023/08/19 01:22:51;;;;;;;12.75;4.65;;;;;;;23.85;59.54;95277.97;5050443;28;20250;-74
2023/08/19 01:25:17;;;;;;;9.15;4.60;;;;;;;23.67;59.54;95276.66;5072015;28;20259;-75
2023/08/19 01:27:42;;;;;;;7.88;4.78;;;;;;;23.70;59.85;95281.47;5039439;28;20707;-74
2023/08/19 01:30:08;;;;;;;10.45;4.70;;;;;;;23.75;59.56;95273.44;5038791;28;20224;-74
2023/08/19 01:32:34;;;;;;;9.70;4.80;;;;;;;23.66;59.88;95269.75;5037509;28;20228;-75
2023/08/19 01:35:00;;;;;;;9.90;4.63;;;;;;;23.78;59.74;95270.25;5054913;28;20819;-74
2023/08/19 01:37:44;;;;;;;8.85;4.38;;;;;;;23.70;60.07;95270.78;5053772;28;20275;-75
2023/08/19 01:40:11;;;;;;;10.55;4.80;;;;;;;23.69;59.79;95266.50;5071319;28;20231;-75
2023/08/19 01:42:36;;;;;;;9.57;5.03;;;;;;;23.70;59.71;95262.78;5036309;28;20238;-74
2023/08/19 01:45:03;;;;;;;8.63;5.07;;;;;;;23.68;59.97;95256.91;5037747;28;20224;-74
2023/08/19 01:47:28;;;;;;;12.73;4.80;;;;;;;23.69;60.33;95257.72;5045591;28;20229;-74
2023/08/19 01:49:54;;;;;;;9.25;4.80;;;;;;;23.76;59.80;95261.69;5036595;28;20259;-74
2023/08/19 01:52:19;;;;;;;7.72;4.53;;;;;;;23.68;60.04;95261.44;5052532;28;20236;-74
2023/08/19 01:54:45;;;;;;;7.13;4.47;;;;;;;23.63;60.25;95256.09;5058254;28;20655;-75
2023/08/19 01:57:10;;;;;;;6.35;4.60;;;;;;;23.50;60.89;95254.81;5050275;28;20227;-75
2023/08/19 01:59:36;;;;;;;7.53;4.93;;;;;;;23.62;60.32;95255.31;5055386;28;20301;-74
2023/08/19 02:02:01;;;;;;;10.15;4.78;;;;;;;23.54;60.58;95250.53;5053198;28;20239;-74
2023/08/19 02:04:27;;;;;;;15.02;5.07;;;;;;;23.52;60.71;95263.38;5036983;28;20280;-75
2023/08/19 02:06:53;;;;;;;8.90;4.68;;;;;;;23.56;60.69;95264.41;5053725;28;20236;-71
2023/08/19 02:09:19;;;;;;;8.18;4.95;;;;;;;23.58;60.31;95262.28;5066665;28;20224;-72
2023/08/19 02:11:44;;;;;;;8.98;4.95;;;;;;;23.51;60.53;95267.09;5038600;28;20231;-72
2023/08/19 02:14:10;;;;;;;8.35;4.90;;;;;;;23.38;61.09;95260.44;5052775;28;20235;-72
2023/08/19 02:16:35;;;;;;;10.77;4.80;;;;;;;23.40;61.27;95269.00;5051021;28;20266;-71
2023/08/19 02:19:01;;;;;;;8.95;5.30;;;;;;;23.38;61.17;95263.13;5034644;28;20727;-71
2023/08/19 02:21:26;;;;;;;10.65;5.03;;;;;;;23.35;61.02;95265.56;5053372;28;20239;-70
2023/08/19 02:23:53;;;;;;;8.27;4.47;;;;;;;23.25;61.38;95262.84;5048225;28;20243;-71
2023/08/19 02:26:19;;;;;;;10.13;5.00;;;;;;;23.31;61.52;95262.56;5036511;28;20708;-71
2023/08/19 02:28:44;;;;;;;11.38;5.22;;;;;;;23.24;61.71;95259.38;5054876;28;20248;-70
2023/08/19 02:31:10;;;;;;;12.30;5.60;;;;;;;23.22;61.58;95263.38;5069399;28;20232;-71
2023/08/19 02:33:36;;;;;;;9.77;5.00;;;;;;;23.18;62.00;95259.66;5055583;28;20232;-71
2023/08/19 02:36:02;;;;;;;8.10;5.10;;;;;;;23.10;62.01;95265.53;5052986;28;20900;-72
2023/08/19 02:38:27;;;;;;;12.63;5.18;;;;;;;23.19;61.94;95261.28;5042415;28;20238;-71
2023/08/19 02:40:53;;;;;;;10.75;4.93;;;;;;;23.11;62.41;95261.81;5041411;28;20224;-70
2023/08/19 02:43:18;;;;;;;9.85;5.43;;;;;;;23.08;62.24;95259.66;5052270;28;20238;-71
2023/08/19 02:45:45;;;;;;;10.43;5.32;;;;;;;23.04;62.17;95261.28;5048830;28;20336;-71
2023/08/19 02:48:11;;;;;;;13.13;5.32;;;;;;;23.08;62.32;95263.16;5051074;28;20265;-70
2023/08/19 02:50:36;;;;;;;12.23;5.20;;;;;;;23.07;62.64;95271.44;5063979;28;20234;-71
2023/08/19 02:53:02;;;;;;;10.55;5.50;;;;;;;22.95;63.06;95270.91;5053423;28;20232;-70
2023/08/19 02:55:27;;;;;;;12.15;5.20;;;;;;;22.96;62.76;95267.16;5051021;28;20672;-70
2023/08/19 02:57:53;;;;;;;8.43;5.40;;;;;;;23.00;62.71;95273.59;5062755;28;20872;-70
2023/08/19 03:00:19;;;;;;;7.00;5.00;;;;;;;23.07;62.46;95263.44;5029311;28;20228;-70
2023/08/19 03:02:47;;;;;;;8.60;5.28;;;;;;;22.89;63.32;95263.97;5050971;28;20223;-71
2023/08/19 03:05:13;;;;;;;10.10;5.00;;;;;;;22.85;63.08;95276.25;5047406;28;20827;-70
2023/08/19 03:07:38;;;;;;;10.25;5.28;;;;;;;22.83;63.10;95273.84;5033774;28;20225;-72
2023/08/19 03:10:05;;;;;;;10.43;5.20;;;;;;;22.77;63.29;95275.72;5043936;28;20220;-70
2023/08/19 03:12:31;;;;;;;10.38;5.03;;;;;;;22.70;63.42;95269.84;5045166;28;20228;-70
2023/08/19 03:14:56;;;;;;;9.10;5.18;;;;;;;22.63;63.59;95276.50;5043349;28;20254;-71
2023/08/19 03:17:21;;;;;;;8.32;5.40;;;;;;;22.66;63.43;95282.09;5045382;28;20224;-70
2023/08/19 03:19:50;;;;;;;12.20;5.47;;;;;;;22.76;63.08;95279.44;5028544;28;20798;-75
2023/08/19 03:22:15;;;;;;;8.77;5.28;;;;;;;22.60;63.34;95277.78;5028366;28;20334;-75
2023/08/19 03:24:41;;;;;;;12.25;5.30;;;;;;;22.70;62.92;95283.19;5031452;28;20284;-75
2023/08/19 03:27:06;;;;;;;9.52;5.25;;;;;;;22.70;62.49;95280.50;5044878;28;20228;-75
2023/08/19 03:29:32;;;;;;;9.07;5.00;;;;;;;22.67;62.73;95277.56;5046188;28;20233;-76
2023/08/19 03:31:58;;;;;;;8.50;5.15;;;;;;;22.67;62.85;95282.91;5031416;28;20229;-74
2023/08/19 03:34:24;;;;;;;8.82;5.18;;;;;;;22.59;62.81;95278.06;5041655;28;20244;-74
2023/08/19 03:36:50;;;;;;;8.73;4.90;;;;;;;22.56;62.69;95274.06;5042121;28;21112;-76
2023/08/19 03:39:15;;;;;;;8.82;5.20;;;;;;;22.52;62.93;95267.63;5029307;28;20476;-75
2023/08/19 03:41:41;;;;;;;8.68;4.82;;;;;;;22.49;63.11;95276.19;5030878;28;20232;-76
2023/08/19 03:44:06;;;;;;;8.50;5.10;;;;;;;22.58;62.80;95271.94;5044463;28;20219;-76
2023/08/19 03:46:32;;;;;;;9.60;4.80;;;;;;;22.43;63.21;95265.75;5029701;28;20229;-75
2023/08/19 03:48:57;;;;;;;10.25;5.03;;;;;;;22.46;62.99;95275.91;5028421;28;20236;-75
2023/08/19 03:51:23;;;;;;;8.50;4.93;;;;;;;22.59;62.93;95270.06;5039786;28;20229;-75
2023/08/19 03:53:48;;;;;;;8.20;5.10;;;;;;;22.52;62.90;95269.53;5045829;28;20244;-76
2023/08/19 03:56:14;;;;;;;7.78;4.95;;;;;;;22.58;62.96;95271.94;5035680;28;20237;-75
2023/08/19 03:58:39;;;;;;;11.52;5.53;;;;;;;22.57;63.00;95270.31;5013399;28;20241;-75
2023/08/19 04:01:08;;;;;;;8.25;5.22;;;;;;;22.65;62.42;95275.16;5006111;28;20363;-74
2023/08/19 04:03:33;;;;;;;10.55;5.32;;;;;;;22.52;62.45;95270.31;5020062;28;20225;-75
2023/08/19 04:05:59;;;;;;;6.63;4.82;;;;;;;22.42;63.26;95277.50;5014323;28;20225;-75
2023/08/19 04:08:25;;;;;;;9.13;5.40;;;;;;;22.48;63.20;95281.78;5018557;28;20244;-75
2023/08/19 04:10:51;;;;;;;9.77;5.22;;;;;;;22.37;63.82;95280.97;5040530;28;20229;-75
2023/08/19 04:13:17;;;;;;;8.40;4.95;;;;;;;22.44;63.60;95283.38;5051757;28;20232;-75
2023/08/19 04:15:43;;;;;;;6.43;5.10;;;;;;;22.43;63.89;95285.25;5031648;28;20751;-76
2023/08/19 04:18:08;;;;;;;8.55;5.40;;;;;;;;;;5019670;28;20232;-75
2023/08/19 04:20:38;;;;;;;8.02;5.10;;;;;;;22.53;63.27;95285.25;5036280;28;20240;-75
2023/08/19 04:23:04;;;;;;;7.82;5.40;;;;;;;22.37;63.94;95294.31;5072094;28;20668;-75
2023/08/19 04:25:30;;;;;;;8.85;5.43;;;;;;;22.41;63.18;95292.72;5073734;28;20231;-75
2023/08/19 04:27:55;;;;;;;13.13;5.30;;;;;;;22.40;63.31;95304.44;5056789;28;20623;-75
2023/08/19 04:30:21;;;;;;;8.43;5.43;;;;;;;22.55;63.16;95296.47;5052488;28;20232;-75
2023/08/19 04:32:46;;;;;;;10.02;5.53;;;;;;;22.54;64.07;95300.22;5054072;28;20243;-75
2023/08/19 04:35:12;;;;;;;11.75;5.88;;;;;;;22.35;64.82;95298.31;5038594;28;20256;-75
2023/08/19 04:37:38;;;;;;;10.65;5.00;;;;;;;22.52;63.42;95304.22;5055482;28;20315;-75
2023/08/19 04:40:09;;;;;;;8.15;5.38;;;;;;;22.55;63.16;95307.13;5057840;28;20232;-75
2023/08/19 04:42:37;;;;;;;8.52;5.53;;;;;;;22.51;63.55;95300.75;5059769;28;20303;-75
2023/08/19 04:45:05;;;;;;;9.07;5.35;;;;;;;22.59;63.17;95302.09;5039401;28;20740;-76
2023/08/19 04:47:32;;;;;;;10.15;5.10;;;;;;;22.72;62.62;95305.06;5056914;28;20331;-75
2023/08/19 04:49:57;;;;;;;9.18;5.13;;;;;;;22.73;62.35;95313.88;5035414;28;20228;-75
2023/08/19 04:52:23;;;;;;;9.48;5.40;;;;;;;22.82;62.21;95316.81;5054557;28;20228;-74
2023/08/19 04:54:48;;;;;;;10.63;5.50;;;;;;;22.70;62.92;95319.75;5036735;28;20266;-75
2023/08/19 04:57:14;;;;;;;10.05;5.30;;;;;;;22.72;62.69;95312.25;5071836;28;20259;-74
2023/08/19 04:59:39;;;;;;;11.52;6.40;;;;;;;22.82;62.56;95320.28;5072316;28;20248;-74
2023/08/19 05:02:05;;;;;;;14.45;6.40;;;;;;;22.68;62.86;95321.88;5055087;28;20232;-75
2023/08/19 05:04:30;;;;;;;21.77;6.22;;;;;;;22.76;62.95;95327.47;5048274;28;20289;-76
2023/08/19 05:06:56;;;;;;;11.80;5.80;;;;;;;22.82;62.88;95322.16;5055119;28;20236;-73
2023/08/19 05:09:21;;;;;;;12.25;6.15;;;;;;;22.84;63.52;95318.16;5038772;28;20220;-75
2023/08/19 05:11:47;;;;;;;12.32;5.85;;;;;;;22.84;63.11;95320.00;5053679;28;20216;-74
2023/08/19 05:14:13;;;;;;;11.30;5.63;;;;;;;22.75;63.17;95317.09;5068806;28;20227;-75
2023/08/19 05:16:38;;;;;;;17.05;5.55;;;;;;;22.87;63.06;95322.16;5055849;28;20220;-75
2023/08/19 05:19:17;;;;;;;10.68;5.47;;;;;;;22.79;62.85;95321.63;5056047;28;20637;-74
2023/08/19 05:21:42;;;;;;;11.13;5.75;;;;;;;23.06;62.60;95325.91;5045427;28;20240;-76
2023/08/19 05:24:10;;;;;;;13.05;5.50;;;;;;;23.07;62.20;95319.50;5055856;28;20323;-75
2023/08/19 05:26:36;;;;;;;13.45;5.53;;;;;;;23.02;63.02;95322.19;5051158;28;20319;-76
2023/08/19 05:29:01;;;;;;;13.48;5.53;;;;;;;22.99;62.99;95323.50;5055035;28;20289;-75
2023/08/19 05:31:27;;;;;;;10.15;5.82;;;;;;;23.07;62.73;95314.94;5039883;28;20713;-75
2023/08/19 05:33:53;;;;;;;13.10;5.63;;;;;;;23.39;61.37;95318.16;5054431;28;20315;-75
2023/08/19 05:36:18;;;;;;;8.65;5.32;;;;;;;23.37;62.05;95314.16;5037652;28;20244;-75
2023/08/19 05:38:44;;;;;;;10.27;5.70;;;;;;;23.50;61.13;95318.16;5056254;28;20227;-74
2023/08/19 05:41:09;;;;;;;8.77;5.38;;;;;;;23.64;60.44;95317.34;5057245;28;20247;-74
2023/08/19 05:43:35;;;;;;;14.02;5.55;;;;;;;23.91;58.98;95301.72;5031706;28;20767;-75
2023/08/19 05:46:06;;;;;;;8.05;5.00;;;;;;;24.76;56.14;95318.47;5067773;28;20259;-75
2023/08/19 05:48:32;;;;;;;17.38;5.28;;;;;;;24.19;58.02;95305.66;5038723;28;20234;-74
2023/08/19 05:50:57;;;;;;;8.55;5.03;;;;;;;24.06;58.66;95306.22;5034067;28;20228;-74
2023/08/19 05:53:23;;;;;;;9.23;5.32;;;;;;;23.91;58.84;95307.06;5035048;28;20224;-75
2023/08/19 05:55:48;;;;;;;10.75;5.15;;;;;;;23.87;59.35;95307.91;5086722;28;20235;-74
2023/08/19 05:58:15;;;;;;;7.95;5.40;;;;;;;23.86;58.29;95309.00;5055484;28;20231;-74
2023/08/19 06:00:40;;;;;;;8.52;4.97;;;;;;;23.81;58.99;95311.69;5068571;28;20244;-74
2023/08/19 06:03:06;;;;;;;7.65;5.15;;;;;;;23.80;59.50;95321.56;5049432;28;20307;-75
2023/08/19 06:05:31;;;;;;;10.77;5.07;;;;;;;23.77;59.74;95311.41;5071419;28;20251;-75
2023/08/19 06:07:57;;;;;;;14.02;5.40;;;;;;;23.88;59.67;95314.84;5054158;28;20355;-74
2023/08/19 06:10:23;;;;;;;11.88;5.03;;;;;;;23.89;59.32;95319.94;5053713;28;20728;-74
2023/08/19 06:12:48;;;;;;;6.80;4.68;;;;;;;23.87;59.12;95318.59;5051549;28;20235;-74
2023/08/19 06:15:14;;;;;;;8.73;4.85;;;;;;;23.88;58.72;95320.97;5033937;28;20411;-78
2023/08/19 06:17:40;;;;;;;13.02;5.00;;;;;;;23.85;59.61;95329.56;5035170;28;20224;-77
2023/08/19 06:20:06;;;;;;;8.63;5.03;;;;;;;23.88;59.38;95330.91;5055922;28;20792;-77
2023/08/19 06:22:32;;;;;;;8.57;5.15;;;;;;;23.84;59.54;95335.16;5030929;28;20223;-78
2023/08/19 06:24:57;;;;;;;12.52;5.28;;;;;;;23.98;59.65;95341.53;5068732;28;20258;-78
2023/08/19 06:27:23;;;;;;;16.00;4.93;;;;;;;24.07;59.75;95342.63;5059346;28;20240;-76
2023/08/19 06:29:49;;;;;;;11.52;4.93;;;;;;;24.06;59.37;95344.50;5052932;28;20617;-79
2023/08/19 06:32:15;;;;;;;12.00;4.63;;;;;;;24.06;59.32;95336.47;5049716;28;20228;-77
2023/08/19 06:34:41;;;;;;;10.38;5.00;;;;;;;24.30;58.27;95341.19;5054009;28;20243;-78
2023/08/19 06:37:06;;;;;;;11.65;4.75;;;;;;;24.30;58.73;95339.31;5029556;28;20228;-78
2023/08/19 06:39:33;;;;;;;11.18;5.10;;;;;;;24.35;58.82;95347.34;5086499;28;20298;-76
2023/08/19 06:42:03;;;;;;;10.05;4.45;;;;;;;24.39;58.23;95348.38;5037683;28;20267;-77
2023/08/19 06:44:29;;;;;;;9.88;4.70;;;;;;;24.40;58.20;95335.78;5053177;28;20231;-78
2023/08/19 06:46:55;;;;;;;7.40;4.65;;;;;;;24.50;57.90;95341.09;5040150;28;20231;-77
2023/08/19 06:49:34;;;;;;;8.65;4.60;;;;;;;24.62;57.54;95334.31;5072526;28;20265;-78
2023/08/19 06:51:59;;;;;;;8.98;4.88;;;;;;;24.68;57.56;95329.75;5037269;28;20381;-77
2023/08/19 06:54:47;;;;;;;13.45;4.68;;;;;;;24.70;55.85;95335.63;5089927;28;20306;-78
2023/08/19 06:57:38;;;;;;;9.48;4.28;;;;;;;24.78;56.53;95332.41;5055385;28;20232;-77
2023/08/19 07:00:10;;;;;;;9.63;4.40;;;;;;;24.97;54.93;95330.66;5066006;28;20232;-77
2023/08/19 07:02:37;;;;;;;9.75;3.90;;;;;;;24.97;55.15;95335.19;5068968;28;20235;-77
2023/08/19 07:05:05;;;;;;;9.00;4.28;;;;;;;25.07;54.76;95335.94;5036522;28;20227;-78
2023/08/19 07:07:31;;;;;;;5.78;4.07;;;;;;;25.22;54.36;95333.13;5037820;28;20220;-77
2023/08/19 07:09:56;;;;;;;8.10;4.20;;;;;;;25.32;53.47;95332.25;5052077;28;20299;-74
2023/08/19 07:12:22;;;;;;;6.30;3.65;;;;;;;25.36;52.01;95334.06;5036940;28;20240;-76
2023/08/19 07:14:48;;;;;;;10.63;3.90;;;;;;;25.59;50.64;95326.41;5052307;28;20227;-77
2023/08/19 07:20:35;;;;;;;5.72;3.55;;;;;;;25.85;48.74;95330.41;5077930;28;20263;-74
2023/08/19 07:23:01;;;;;;;5.55;3.70;;;;;;;25.85;47.62;95333.09;5067088;28;20650;-74
2023/08/19 07:25:26;;;;;;;5.22;3.60;;;;;;;25.87;49.44;95326.38;5040559;28;20379;-73
2023/08/19 07:27:52;;;;;;;8.55;3.60;;;;;;;25.91;48.49;95326.59;5044977;28;20228;-74
2023/08/19 07:30:18;;;;;;;10.25;3.78;;;;;;;25.84;48.97;95324.25;5040584;28;20283;-74
2023/08/19 07:32:45;;;;;;;8.93;3.85;;;;;;;25.99;48.82;95328.66;5052533;28;20716;-75
2023/08/19 07:35:10;;;;;;;10.93;3.83;;;;;;;25.99;47.63;95329.44;5052525;28;20227;-75
2023/08/19 07:37:36;;;;;;;13.65;3.80;;;;;;;26.24;46.57;95330.28;5048714;28;20823;-75
2023/08/19 07:40:05;;;;;;;5.47;3.47;;;;;;;26.28;45.26;95328.59;5050830;28;20239;-75
2023/08/19 07:42:31;;;;;;;9.57;3.53;;;;;;;26.31;45.83;95328.84;5025976;28;20255;-74
2023/08/19 07:44:57;;;;;;;8.18;3.70;;;;;;;26.31;45.35;95330.72;5019973;28;20784;-75
2023/08/19 07:47:22;;;;;;;4.82;3.40;;;;;;;26.30;46.30;95331.78;5071472;28;20269;-75
2023/08/19 07:49:48;;;;;;;8.90;3.97;;;;;;;26.38;46.64;95334.66;5057930;28;20721;-75
2023/08/19 07:52:14;;;;;;;4.80;3.38;;;;;;;26.35;46.59;95337.91;5060106;28;20293;-75
2023/08/19 07:54:40;;;;;;;5.88;3.50;;;;;;;26.42;46.52;95338.34;5038045;28;20276;-74
2023/08/19 07:57:06;;;;;;;10.15;4.00;;;;;;;26.52;47.34;95335.53;5033051;28;20229;-74
2023/08/19 07:59:31;;;;;;;8.02;3.60;;;;;;;26.40;47.65;95332.47;5040250;28;20254;-74
2023/08/19 08:01:57;;;;;;;6.93;3.80;;;;;;;26.55;46.32;95337.66;5034257;28;20236;-74
2023/08/19 08:04:22;;;;;;;5.78;3.63;;;;;;;26.41;47.30;95335.97;5043584;28;20228;-75
2023/08/19 08:06:49;;;;;;;8.55;3.47;;;;;;;26.46;47.96;95341.28;5040209;28;20238;-75
2023/08/19 08:09:15;;;;;;;6.50;3.50;;;;;;;26.58;45.73;95338.97;5073962;28;20220;-75
2023/08/19 08:11:41;;;;;;;9.38;3.63;;;;;;;26.63;46.83;95339.66;5035634;28;20232;-75
2023/08/19 08:14:06;;;;;;;6.70;3.55;;;;;;;26.72;46.89;95340.63;5043025;28;20248;-75
2023/08/19 08:16:32;;;;;;;6.18;3.78;;;;;;;26.89;46.43;95342.03;5025295;28;20236;-75
2023/08/19 08:18:58;;;;;;;8.32;3.85;;;;;;;26.96;47.06;95337.09;5050376;28;20721;-74
2023/08/19 08:21:23;;;;;;;10.02;3.80;;;;;;;26.96;45.67;95337.91;5068919;28;20771;-75
2023/08/19 08:23:49;;;;;;;8.23;3.70;;;;;;;26.82;46.16;95344.31;5055285;28;20231;-76
2023/08/19 08:26:15;;;;;;;5.30;3.70;;;;;;;26.98;46.53;95333.03;5055128;28;20311;-75
2023/08/19 08:28:41;;;;;;;8.55;3.90;;;;;;;27.12;46.51;95322.34;5044842;28;20229;-74
2023/08/19 08:31:07;;;;;;;5.75;3.83;;;;;;;27.23;46.24;95331.81;5044651;28;20933;-74
2023/08/19 08:33:33;;;;;;;7.40;3.60;;;;;;;27.25;45.45;95326.97;5040235;28;20230;-75
2023/08/19 08:36:00;;;;;;;8.55;3.97;;;;;;;27.23;45.99;95326.44;5040446;28;20241;-74
2023/08/19 08:38:26;;;;;;;9.13;3.80;;;;;;;27.42;46.05;95332.59;5071307;28;20293;-73
2023/08/19 08:40:52;;;;;;;8.23;3.60;;;;;;;27.60;45.79;95329.09;5053945;28;20274;-75
2023/08/19 08:43:17;;;;;;;5.93;3.80;;;;;;;27.68;45.67;95333.75;5046264;28;20239;-74
2023/08/19 08:45:43;;;;;;;9.27;3.40;;;;;;;27.66;45.04;95335.16;5051184;28;20328;-75
2023/08/19 08:48:09;;;;;;;6.18;3.80;;;;;;;27.69;45.71;95326.50;5038016;28;20625;-76
2023/08/19 08:50:35;;;;;;;7.45;3.83;;;;;;;27.73;45.56;95328.28;5054364;28;20292;-75
2023/08/19 08:53:00;;;;;;;4.65;3.60;;;;;;;27.73;45.16;95330.22;5040612;28;20314;-74
2023/08/19 08:55:26;;;;;;;4.55;3.20;;;;;;;27.73;44.69;95336.38;5016937;28;20241;-75
2023/08/19 08:57:52;;;;;;;5.13;3.50;;;;;;;27.84;44.36;95331.59;5049968;28;20241;-74
2023/08/19 09:00:18;;;;;;;8.15;3.60;;;;;;;27.88;44.95;95324.53;5052564;28;20220;-75
2023/08/19 09:02:44;;;;;;;7.45;3.58;;;;;;;27.89;44.93;95329.63;5036459;28;20228;-75
2023/08/19 09:05:09;;;;;;;8.65;3.70;;;;;;;28.00;44.32;95320.28;5031552;28;20357;-75
2023/08/19 09:07:41;;;;;;;6.50;3.50;;;;;;;28.19;43.12;95324.75;5068171;28;20286;-75
2023/08/19 09:10:12;;;;;;;6.38;3.42;;;;;;;28.25;42.41;95310.09;5065684;28;20224;-75
2023/08/19 09:12:38;;;;;;;4.18;3.20;;;;;;;28.24;41.58;95314.69;5038316;28;20684;-75
2023/08/19 09:15:04;;;;;;;5.53;3.20;;;;;;;28.29;42.69;95311.09;5052782;28;20223;-74
2023/08/19 09:17:32;;;;;;;6.57;3.20;;;;;;;28.38;41.06;95311.97;5070489;28;20897;-74
2023/08/19 09:19:58;;;;;;;8.02;3.20;;;;;;;28.46;41.25;95308.56;5053675;28;20224;-74
2023/08/19 09:22:24;;;;;;;9.02;3.60;;;;;;;28.65;40.32;95311.97;5055378;28;20243;-75
2023/08/19 09:24:50;;;;;;;5.60;3.10;;;;;;;28.85;40.54;95316.09;5070185;28;20875;-74
2023/08/19 09:27:29;;;;;;;5.65;3.20;;;;;;;28.74;39.07;95315.53;5052513;28;20254;-73
2023/08/19 09:29:54;;;;;;;6.57;3.10;;;;;;;28.71;39.62;95316.13;5052036;28;20671;-75
2023/08/19 09:32:27;;;;;;;8.65;3.10;;;;;;;28.79;39.65;95307.31;5056726;28;20263;-71
2023/08/19 09:35:04;;;;;;;3.92;3.08;;;;;;;28.83;38.78;95310.22;5053994;28;20256;-72
2023/08/19 09:37:33;;;;;;;4.80;2.90;;;;;;;28.74;37.99;95310.13;5054727;28;20596;-72
2023/08/19 09:39:59;;;;;;;6.18;3.00;;;;;;;28.57;39.33;95312.63;5073595;28;20252;-70
2023/08/19 09:42:26;;;;;;;4.57;3.08;;;;;;;28.55;39.48;95314.84;5036418;28;20255;-71
2023/08/19 09:44:52;;;;;;;7.72;3.15;;;;;;;28.54;39.46;95314.03;5052060;28;20717;-72
2023/08/19 09:47:17;;;;;;;8.90;3.05;;;;;;;28.66;39.72;95308.16;5033570;28;20228;-70
2023/08/19 09:49:43;;;;;;;5.70;3.03;;;;;;;28.85;39.97;95305.31;5054346;28;20224;-70
2023/08/19 09:52:16;;;;;;;5.00;3.10;;;;;;;29.06;39.00;95304.53;5025765;28;20289;-71
2023/08/19 09:54:41;;;;;;;4.85;3.10;;;;;;;29.12;37.93;95303.31;5052277;28;20738;-71
2023/08/19 09:57:07;;;;;;;8.55;3.20;;;;;;;29.30;37.02;95301.56;5051174;28;20318;-70
2023/08/19 09:59:32;;;;;;;7.05;3.00;;;;;;;29.39;37.18;95301.59;5021853;28;20229;-71
2023/08/19 10:01:58;;;;;;;7.75;3.10;;;;;;;29.44;37.06;95296.88;5067776;28;20641;-71
2023/08/19 10:04:24;;;;;;;6.93;3.08;;;;;;;29.67;37.93;95297.63;5049600;28;20235;-69
2023/08/19 10:06:54;;;;;;;7.00;3.17;;;;;;;29.81;36.40;95309.16;5045853;28;20232;-72
2023/08/19 10:09:25;;;;;;;6.57;2.90;;;;;;;29.91;36.64;95304.28;5036338;28;20306;-71
2023/08/19 10:11:52;;;;;;;8.35;2.95;;;;;;;29.90;35.61;95308.09;5056594;28;20326;-71
2023/08/19 10:14:20;;;;;;;7.28;3.08;;;;;;;29.94;35.32;95302.88;5033055;28;20219;-71
2023/08/19 10:16:47;;;;;;;5.88;3.00;;;;;;;30.09;34.74;95309.75;5039207;28;20236;-71
2023/08/19 10:19:14;;;;;;;5.22;2.92;;;;;;;30.11;35.21;95312.94;5054704;28;20340;-71
2023/08/19 10:21:40;;;;;;;4.70;2.95;;;;;;;30.15;35.21;95306.59;5036899;28;20240;-71
2023/08/19 10:24:06;;;;;;;5.10;3.30;;;;;;;30.41;36.21;95304.00;5038925;28;20235;-70
2023/08/19 10:26:31;;;;;;;6.07;2.63;;;;;;;30.40;32.39;95315.94;5040281;28;20286;-72
2023/08/19 10:29:03;;;;;;;4.10;2.80;;;;;;;30.41;33.26;95317.50;5057789;28;20228;-71
2023/08/19 10:31:29;;;;;;;4.53;3.03;;;;;;;30.57;33.17;95299.75;5068920;28;20231;-71
2023/08/19 10:33:55;;;;;;;5.25;3.03;;;;;;;30.45;33.84;95308.44;5064238;28;20736;-70
2023/08/19 10:36:22;;;;;;;13.07;2.90;;;;;;;30.42;34.34;95300.19;5049418;28;20236;-71
2023/08/19 10:38:54;;;;;;;16.65;3.00;;;;;;;30.46;32.86;95291.13;5033786;28;20283;-72
2023/08/19 10:41:27;;;;;;;4.32;2.80;;;;;;;30.50;32.61;95304.78;5047468;28;20239;-71
2023/08/19 10:44:10;;;;;;;5.10;2.65;;;;;;;30.55;33.53;95300.03;5068183;28;20227;-72
2023/08/19 10:46:37;;;;;;;7.13;3.00;;;;;;;30.65;32.79;95297.03;5062417;28;20247;-71
2023/08/19 10:49:07;;;;;;;5.78;3.08;;;;;;;30.67;34.89;95299.41;5031760;28;20274;-71
2023/08/19 10:52:00;;;;;;;6.05;3.03;;;;;;;30.69;34.04;95297.19;5016729;28;20259;-72
2023/08/19 10:54:26;;;;;;;8.55;2.97;;;;;;;30.67;33.62;95309.47;5046561;28;20229;-71
2023/08/19 10:56:52;;;;;;;5.45;2.90;;;;;;;30.67;33.09;95307.53;5066849;28;20251;-71
2023/08/19 10:59:20;;;;;;;8.82;3.10;;;;;;;30.63;33.63;95312.78;5045046;28;20301;-72
2023/08/19 11:01:45;;;;;;;9.15;3.10;;;;;;;30.49;33.92;95297.81;5047519;28;20331;-70
2023/08/19 11:04:11;;;;;;;6.30;3.13;;;;;;;30.60;33.74;95302.59;5041187;28;20231;-72
2023/08/19 11:06:38;;;;;;;7.97;2.90;;;;;;;30.87;33.61;95306.13;5030556;28;20229;-72
2023/08/19 11:09:03;;;;;;;4.28;3.08;;;;;;;30.94;33.39;95309.97;5033825;28;20229;-71
2023/08/19 11:11:33;;;;;;;3.83;2.92;;;;;;;30.78;34.31;95308.03;5052319;28;20279;-70
2023/08/19 11:13:58;;;;;;;5.90;2.92;;;;;;;30.68;35.11;95301.03;5066884;28;20807;-72
2023/08/19 11:16:26;;;;;;;6.07;3.00;;;;;;;30.72;34.15;95304.69;5065171;28;20224;-71
2023/08/19 11:18:53;;;;;;;5.82;3.20;;;;;;;30.72;34.52;95296.56;5034563;28;20480;-71
2023/08/19 11:21:18;;;;;;;4.82;2.90;;;;;;;30.50;33.93;95302.09;5064506;28;20284;-71
2023/08/19 11:23:44;;;;;;;5.43;3.00;;;;;;;30.22;34.74;95306.13;5051114;28;20756;-73
2023/08/19 11:26:10;;;;;;;5.25;3.00;;;;;;;30.47;35.08;95300.84;5068001;28;21147;-72
2023/08/19 11:28:36;;;;;;;5.03;3.10;;;;;;;30.65;34.49;95297.03;5065077;28;20258;-72
2023/08/19 11:31:02;;;;;;;4.10;3.20;;;;;;;30.70;34.30;95293.38;5050921;28;20239;-72
2023/08/19 11:33:32;;;;;;;5.50;3.22;;;;;;;30.65;35.21;95296.25;5037230;28;20281;-72